Time;durP1;ratioP1;P1;durP2;ratioP2;P2;SDS_P1;SDS_P2;PMS_P1;PMS_P2;Temp;Humidity;BMP_temperature;BMP_pressure;BME280_temperature;BME280_humidity;BME280_pressure;Samples;Min_cycle;Max_cycle;Signal;HPM_P1;HPM_P2
2023/10/13 00:02:18;;;;;;;15.63;8.37;;;;;;;19.43;82.13;100547.06;5031929;28;20259;-69
2023/10/13 00:04:46;;;;;;;23.10;9.33;;;;;;;19.38;82.38;100547.66;5035327;28;20263;-69
2023/10/13 00:07:14;;;;;;;21.63;9.07;;;;;;;19.30;82.90;100544.34;5034243;28;20333;-70
2023/10/13 00:09:42;;;;;;;19.77;8.97;;;;;;;19.28;83.21;100546.38;5033596;28;20212;-69
2023/10/13 00:12:13;;;;;;;15.60;8.37;;;;;;;19.18;82.95;100550.28;5034730;28;20262;-68
2023/10/13 00:14:41;;;;;;;20.53;9.40;;;;;;;19.20;83.11;100547.41;5035262;28;20681;-68
2023/10/13 00:17:19;;;;;;;17.90;9.50;;;;;;;19.20;83.20;100541.19;5036684;28;20196;-70
2023/10/13 00:19:51;;;;;;;21.37;9.97;;;;;;;19.19;83.79;100540.38;5033978;28;20823;-68
2023/10/13 00:22:22;;;;;;;16.03;9.47;;;;;;;19.15;83.42;100539.13;5035838;28;20413;-69
2023/10/13 00:24:51;;;;;;;24.53;9.40;;;;;;;19.17;83.91;100537.88;5034416;28;20246;-69
2023/10/13 00:27:33;;;;;;;18.97;9.43;;;;;;;19.16;83.31;100538.94;5034267;28;20700;-68
2023/10/13 00:30:17;;;;;;;25.63;10.03;;;;;;;19.23;83.48;100535.44;5034387;28;20207;-69
2023/10/13 00:32:54;;;;;;;21.13;9.80;;;;;;;19.18;84.08;100547.59;5034629;28;20295;-71
2023/10/13 00:35:28;;;;;;;22.20;10.07;;;;;;;19.12;83.66;100540.34;5032401;28;20311;-69
2023/10/13 00:37:56;;;;;;;14.87;8.87;;;;;;;19.14;83.24;100541.00;5032129;28;20236;-71
2023/10/13 00:46:00;;;;;;;24.20;9.60;;;;;;;19.05;83.93;100536.81;5028823;28;20212;-70
2023/10/13 00:48:33;;;;;;;19.87;9.33;;;;;;;19.01;84.98;100523.97;5032030;28;20861;-68
2023/10/13 00:51:02;;;;;;;18.27;9.17;;;;;;;19.01;85.04;100523.97;5034635;28;20639;-70
2023/10/13 00:53:33;;;;;;;19.57;9.17;;;;;;;18.96;85.14;100513.84;5033690;28;20270;-69
2023/10/13 00:56:06;;;;;;;16.90;8.60;;;;;;;18.92;85.14;100523.31;5032083;28;20205;-70
2023/10/13 00:58:38;;;;;;;17.00;8.40;;;;;;;18.91;85.60;100518.97;5034333;28;20228;-69
2023/10/13 01:01:17;;;;;;;17.93;7.73;;;;;;;18.90;85.43;100514.66;5034693;28;20296;-70
2023/10/13 01:03:48;;;;;;;14.30;8.10;;;;;;;18.85;85.81;100509.03;5033711;28;21113;-69
2023/10/13 01:06:17;;;;;;;16.37;8.10;;;;;;;18.84;85.74;100509.25;5032328;28;20467;-68
2023/10/13 01:08:50;;;;;;;22.47;9.23;;;;;;;18.83;86.03;100508.41;5033340;28;20748;-68
2023/10/13 01:11:18;;;;;;;15.37;8.50;;;;;;;18.83;86.17;100507.56;5037834;28;20868;-69
2023/10/13 01:13:51;;;;;;;21.07;8.20;;;;;;;18.79;86.20;100512.53;5034223;28;20206;-68
2023/10/13 01:16:21;;;;;;;15.13;8.53;;;;;;;18.80;86.24;100511.50;5033162;28;20804;-68
2023/10/13 01:18:49;;;;;;;17.13;8.73;;;;;;;18.79;86.43;100505.31;5033420;28;20200;-69
2023/10/13 01:21:19;;;;;;;17.27;8.93;;;;;;;18.78;86.42;100502.81;5036449;28;20258;-70
2023/10/13 01:23:50;;;;;;;19.10;8.20;;;;;;;18.77;86.19;100493.09;5034513;28;20290;-70
2023/10/13 01:26:23;;;;;;;17.07;8.43;;;;;;;18.77;86.41;100493.09;5034580;28;20676;-69
2023/10/13 01:28:54;;;;;;;21.33;9.07;;;;;;;18.76;86.12;100500.34;5034090;28;20201;-69
2023/10/13 01:31:31;;;;;;;21.47;8.30;;;;;;;18.77;86.19;100495.78;5034644;28;20193;-69
2023/10/13 01:33:59;;;;;;;18.47;8.13;;;;;;;18.78;85.97;100494.75;5033446;28;20200;-69
2023/10/13 01:36:28;;;;;;;18.57;8.03;;;;;;;18.74;86.12;100482.75;5035916;28;20215;-70
2023/10/13 01:39:01;;;;;;;17.03;8.83;;;;;;;18.76;85.96;100478.00;5033312;28;20205;-69
2023/10/13 01:41:31;;;;;;;17.53;8.23;;;;;;;18.75;85.42;100479.88;5034612;28;20204;-69
2023/10/13 01:43:58;;;;;;;19.27;8.87;;;;;;;18.69;86.30;100471.78;5033830;28;20307;-69
2023/10/13 01:46:28;;;;;;;16.93;7.90;;;;;;;18.69;86.30;100479.84;5031267;28;20232;-69
2023/10/13 01:48:57;;;;;;;15.47;7.60;;;;;;;18.68;85.43;100470.97;5034222;28;20208;-69
2023/10/13 01:51:24;;;;;;;18.50;7.63;;;;;;;18.74;84.67;100467.47;5032010;28;20370;-69
2023/10/13 01:53:56;;;;;;;17.17;8.10;;;;;;;18.83;84.53;100468.13;5033907;28;20533;-68
2023/10/13 01:56:25;;;;;;;13.73;8.30;;;;;;;18.91;83.67;100465.25;5036573;28;20595;-68
2023/10/13 01:58:53;;;;;;;14.30;7.43;;;;;;;18.91;84.34;100464.44;5034541;28;21665;-71
2023/10/13 02:01:26;;;;;;;17.80;8.03;;;;;;;18.94;84.39;100461.31;5038337;28;20826;-68
2023/10/13 02:04:02;;;;;;;18.97;8.43;;;;;;;18.98;83.59;100460.75;5035878;28;20224;-69
2023/10/13 02:06:33;;;;;;;15.13;7.90;;;;;;;19.01;83.68;100459.47;5039561;28;20603;-67
2023/10/13 02:09:12;;;;;;;14.80;8.03;;;;;;;19.00;83.26;100461.34;5036358;28;20207;-71
2023/10/13 02:11:45;;;;;;;20.93;8.63;;;;;;;18.98;83.77;100450.00;5036743;28;20207;-68
2023/10/13 02:14:16;;;;;;;16.70;8.70;;;;;;;18.86;84.79;100445.41;5038355;28;20629;-68
2023/10/13 02:16:46;;;;;;;16.43;7.73;;;;;;;18.84;84.04;100450.97;5033796;28;20939;-69
2023/10/13 02:19:17;;;;;;;17.00;7.90;;;;;;;18.87;84.62;100447.06;5036983;28;20227;-69
2023/10/13 02:21:45;;;;;;;17.07;8.93;;;;;;;18.85;84.86;100439.19;5036583;28;20224;-69
2023/10/13 02:24:17;;;;;;;19.07;8.50;;;;;;;18.77;84.74;100452.81;5036780;28;20634;-69
2023/10/13 02:26:45;;;;;;;16.50;7.53;;;;;;;18.66;85.14;100448.00;5034480;28;20204;-68
2023/10/13 02:29:13;;;;;;;17.73;8.03;;;;;;;18.69;84.31;100450.31;5037074;28;20265;-68
2023/10/13 02:31:42;;;;;;;17.10;8.57;;;;;;;18.73;84.90;100447.00;5037107;28;20204;-68
2023/10/13 02:34:12;;;;;;;17.60;8.23;;;;;;;18.69;84.62;100443.06;5036727;28;20362;-69
2023/10/13 02:36:46;;;;;;;16.53;7.50;;;;;;;18.60;85.23;100443.44;5037302;28;20221;-67
2023/10/13 02:39:16;;;;;;;18.17;8.67;;;;;;;18.53;85.64;100439.88;5036135;28;20638;-69
2023/10/13 02:41:47;;;;;;;16.20;8.07;;;;;;;18.47;85.52;100446.88;5036592;28;20328;-69
2023/10/13 02:44:27;;;;;;;21.50;8.63;;;;;;;18.41;85.38;100443.13;5039263;28;20232;-70
2023/10/13 02:46:55;;;;;;;19.20;8.17;;;;;;;18.36;85.64;100434.88;5035027;28;20204;-68
2023/10/13 02:49:25;;;;;;;18.40;8.67;;;;;;;18.32;86.10;100433.59;5035724;28;20722;-70
2023/10/13 02:51:55;;;;;;;24.43;8.50;;;;;;;18.32;85.90;100428.22;5038711;28;20208;-70
2023/10/13 02:54:30;;;;;;;17.97;7.87;;;;;;;18.35;85.19;100427.84;5036134;28;20200;-69
2023/10/13 02:56:57;;;;;;;22.73;8.67;;;;;;;18.28;85.42;100416.25;5037550;28;20322;-69
2023/10/13 02:59:38;;;;;;;16.80;7.20;;;;;;;18.26;85.78;100412.94;5034493;28;20199;-71
2023/10/13 03:02:17;;;;;;;14.67;8.27;;;;;;;18.21;86.20;100415.34;5038338;28;20206;-69
2023/10/13 03:04:45;;;;;;;13.43;8.30;;;;;;;18.17;86.16;100408.75;5036403;28;20305;-69
2023/10/13 03:07:15;;;;;;;16.93;8.27;;;;;;;18.20;85.56;100419.09;5035545;28;20224;-69
2023/10/13 03:09:50;;;;;;;21.40;8.40;;;;;;;18.16;86.13;100415.13;5038426;28;20200;-68
2023/10/13 03:12:18;;;;;;;16.63;8.13;;;;;;;18.17;86.05;100416.81;5039839;28;20204;-68
2023/10/13 03:14:48;;;;;;;21.00;8.80;;;;;;;18.22;85.61;100414.34;5035288;28;20208;-70
2023/10/13 03:17:17;;;;;;;17.27;8.83;;;;;;;18.20;85.29;100411.03;5034021;28;20232;-69
2023/10/13 03:19:49;;;;;;;20.40;9.07;;;;;;;18.21;85.32;100407.31;5034814;28;20240;-69
2023/10/13 03:22:18;;;;;;;21.03;7.77;;;;;;;18.22;85.07;100411.66;5034832;28;20300;-71
2023/10/13 03:24:46;;;;;;;15.03;8.13;;;;;;;18.20;85.00;100402.16;5036298;28;20216;-69
2023/10/13 03:27:16;;;;;;;15.30;8.27;;;;;;;18.21;84.98;100399.25;5036822;28;20220;-70
2023/10/13 03:29:47;;;;;;;16.67;8.13;;;;;;;18.12;85.41;100396.97;5036738;28;20614;-70
2023/10/13 03:32:18;;;;;;;25.57;8.00;;;;;;;18.17;85.25;100397.19;5036988;28;20202;-69
2023/10/13 03:35:06;;;;;;;17.40;7.93;;;;;;;18.13;84.92;100399.44;5035595;28;20296;-70
2023/10/13 03:37:38;;;;;;;17.43;7.60;;;;;;;18.13;84.74;100390.53;5032191;28;20200;-70
2023/10/13 03:40:33;;;;;;;17.53;7.53;;;;;;;18.12;85.06;100389.72;5033140;28;20300;-70
2023/10/13 03:43:04;;;;;;;17.43;7.83;;;;;;;18.11;85.12;100387.25;5036097;28;20237;-70
2023/10/13 03:45:38;;;;;;;17.77;7.90;;;;;;;18.13;84.63;100375.28;5035326;28;20200;-70
2023/10/13 03:48:27;;;;;;;15.17;8.47;;;;;;;18.08;84.70;100372.38;5036519;28;20211;-69
2023/10/13 03:51:03;;;;;;;17.07;8.07;;;;;;;18.12;84.53;100368.25;5036368;28;20306;-71
2023/10/13 03:53:52;;;;;;;15.10;7.37;;;;;;;18.11;84.34;100366.63;5032738;28;20296;-69
2023/10/13 03:56:27;;;;;;;18.90;7.30;;;;;;;18.09;84.93;100360.63;5035738;28;20335;-70
2023/10/13 03:59:05;;;;;;;18.03;7.33;;;;;;;18.13;84.29;100369.91;5034458;28;20200;-68
2023/10/13 04:01:43;;;;;;;19.27;8.63;;;;;;;18.12;84.24;100362.88;5035849;28;20216;-70
2023/10/13 04:04:15;;;;;;;14.10;7.37;;;;;;;18.16;83.48;100369.53;5033766;28;20303;-70
2023/10/13 04:06:58;;;;;;;22.73;8.10;;;;;;;18.09;83.81;100368.66;5036241;28;20212;-69
2023/10/13 04:13:49;;;;;;;14.47;7.50;;;;;;;18.13;83.76;100375.28;5033136;28;20228;-68
2023/10/13 04:15:19;;;;;;;17.33;7.93;;;;;;;18.19;83.31;100371.81;5035956;28;21292;-69
2023/10/13 04:17:48;;;;;;;18.47;7.40;;;;;;;18.24;82.96;100377.41;5033162;28;20201;-68
2023/10/13 04:20:38;;;;;;;15.80;7.57;;;;;;;18.30;82.62;100387.31;5034924;28;20248;-69
2023/10/13 04:23:19;;;;;;;18.27;7.47;;;;;;;18.36;82.87;100375.81;5034908;28;20240;-69
2023/10/13 04:26:07;;;;;;;16.67;7.27;;;;;;;18.39;81.97;100356.59;5037776;28;20201;-69
2023/10/13 04:28:37;;;;;;;25.70;11.67;;;;;;;18.38;81.77;100357.63;5034707;28;20223;-69
2023/10/13 04:31:24;;;;;;;21.47;8.40;;;;;;;18.39;81.67;100345.84;5036256;28;20219;-68
2023/10/13 04:33:55;;;;;;;17.47;7.60;;;;;;;18.41;81.94;100340.28;5035474;28;20208;-68
2023/10/13 04:36:36;;;;;;;14.63;7.10;;;;;;;18.39;81.80;100340.47;5035715;28;20213;-71
2023/10/13 04:39:14;;;;;;;20.67;7.20;;;;;;;18.41;81.54;100334.91;5031632;28;20196;-69
2023/10/13 04:41:42;;;;;;;17.47;8.03;;;;;;;18.40;81.59;100331.41;5032815;28;20220;-68
2023/10/13 04:44:48;;;;;;;14.93;7.87;;;;;;;18.43;81.20;100327.50;5033814;28;20230;-69
2023/10/13 04:47:17;;;;;;;18.50;8.03;;;;;;;18.49;81.06;100336.59;5030852;28;20213;-69
2023/10/13 04:49:52;;;;;;;13.27;7.40;;;;;;;18.54;81.06;100334.97;5034824;28;20299;-68
2023/10/13 04:52:44;;;;;;;17.83;7.53;;;;;;;18.58;81.20;100330.03;5035597;28;20200;-69
2023/10/13 04:55:32;;;;;;;15.90;7.83;;;;;;;18.62;81.42;100336.66;5035250;28;20279;-72
2023/10/13 04:58:14;;;;;;;18.43;7.13;;;;;;;18.65;80.51;100325.50;5035559;28;20631;-71
2023/10/13 05:01:23;;;;;;;13.63;7.33;;;;;;;18.68;79.92;100338.53;5035375;28;20227;-69
2023/10/13 05:04:08;;;;;;;18.73;8.10;;;;;;;18.65;80.64;100325.50;5033192;28;20223;-69
2023/10/13 05:45:39;;;;;;;19.33;7.80;;;;;;;18.06;84.57;100283.19;5034702;28;20273;-69
2023/10/13 05:48:12;;;;;;;23.57;8.40;;;;;;;18.05;84.50;100293.09;5031766;28;20281;-70
2023/10/13 05:51:32;;;;;;;15.40;7.97;;;;;;;18.06;84.36;100291.25;5032631;28;20787;-69
2023/10/13 06:29:55;;;;;;;19.30;7.73;;;;;;;18.25;78.28;100316.50;4954425;28;20298;-70
2023/10/13 06:32:25;;;;;;;26.27;7.67;;;;;;;18.23;77.84;100316.69;4953718;28;20328;-69
2023/10/13 06:34:57;;;;;;;18.77;8.80;;;;;;;18.21;77.31;100318.75;4990228;28;20217;-70
2023/10/13 06:37:26;;;;;;;18.97;8.27;;;;;;;18.26;76.75;100318.16;5031712;28;20204;-69
2023/10/13 06:39:59;;;;;;;18.63;8.37;;;;;;;18.32;75.42;100315.47;5033725;28;20209;-69
2023/10/13 06:42:28;;;;;;;21.97;8.07;;;;;;;18.36;75.15;100321.28;5035454;28;20220;-69
2023/10/13 06:44:56;;;;;;;14.63;7.33;;;;;;;18.40;74.61;100323.34;5032763;28;20559;-68
2023/10/13 06:47:27;;;;;;;22.70;8.30;;;;;;;18.45;74.50;100327.28;5035927;28;20240;-70
2023/10/13 06:49:57;;;;;;;20.40;8.03;;;;;;;18.51;73.75;100318.44;5035864;28;20641;-69
2023/10/13 06:52:29;;;;;;;23.03;7.47;;;;;;;18.52;73.80;100320.09;5038954;28;20226;-69
2023/10/13 06:54:57;;;;;;;20.50;7.57;;;;;;;18.54;73.58;100320.72;5037476;28;20208;-70
2023/10/13 06:57:26;;;;;;;15.60;7.60;;;;;;;18.58;73.05;100321.97;5036174;28;20291;-69
2023/10/13 06:59:55;;;;;;;20.10;8.67;;;;;;;18.60;73.53;100311.88;5035771;28;20294;-71
2023/10/13 07:02:33;;;;;;;13.37;7.50;;;;;;;18.65;72.72;100315.59;5036105;28;20236;-69
2023/10/13 07:05:07;;;;;;;17.60;7.23;;;;;;;18.67;72.25;100315.38;5034781;28;20220;-70
2023/10/13 07:07:38;;;;;;;19.97;7.20;;;;;;;18.70;72.20;100325.72;5036481;28;20343;-70
2023/10/13 07:10:09;;;;;;;12.97;6.73;;;;;;;18.73;72.69;100318.06;5036998;28;20401;-70
2023/10/13 07:12:42;;;;;;;14.57;8.13;;;;;;;18.77;71.50;100324.69;5035911;28;20219;-69
2023/10/13 07:15:19;;;;;;;18.87;8.87;;;;;;;18.83;71.21;100320.34;5034852;28;20204;-69
2023/10/13 07:17:54;;;;;;;13.57;7.00;;;;;;;18.83;70.97;100323.03;5033365;28;20208;-71
2023/10/13 07:20:33;;;;;;;17.37;7.53;;;;;;;18.84;71.97;100323.88;5036538;28;20660;-70
2023/10/13 07:23:06;;;;;;;16.73;7.17;;;;;;;18.89;71.96;100327.63;5038031;28;20250;-68
2023/10/13 07:25:37;;;;;;;20.23;7.40;;;;;;;18.95;70.61;100321.41;5033902;28;20701;-70
2023/10/13 07:28:08;;;;;;;20.93;8.00;;;;;;;18.97;70.40;100319.34;5032593;28;20197;-68
2023/10/13 07:30:42;;;;;;;17.73;7.00;;;;;;;19.01;70.20;100319.75;5035794;28;20226;-70
2023/10/13 07:33:13;;;;;;;13.03;7.67;;;;;;;19.11;69.49;100326.38;5038398;28;20656;-68
2023/10/13 07:35:41;;;;;;;12.70;6.50;;;;;;;19.12;70.15;100319.97;5037156;28;20216;-70
2023/10/13 07:38:09;;;;;;;15.43;6.63;;;;;;;19.26;69.81;100317.28;5035459;28;20267;-70
2023/10/13 07:40:50;;;;;;;19.53;7.23;;;;;;;19.36;69.31;100315.81;5035805;28;20331;-68
2023/10/13 07:43:21;;;;;;;15.20;6.53;;;;;;;19.47;68.99;100317.91;5036968;28;20231;-69
2023/10/13 07:45:52;;;;;;;16.40;6.30;;;;;;;19.51;67.92;100321.00;5033285;28;20246;-70
2023/10/13 07:48:23;;;;;;;16.27;7.10;;;;;;;19.49;67.27;100320.38;5035367;28;20205;-68
2023/10/13 07:51:03;;;;;;;15.33;6.87;;;;;;;19.45;67.30;100317.22;5034287;28;20204;-70
2023/10/13 07:53:34;;;;;;;18.73;6.70;;;;;;;19.41;68.04;100316.03;5037054;28;20294;-71
2023/10/13 07:56:04;;;;;;;16.70;6.97;;;;;;;19.38;68.55;100320.97;5033214;28;20739;-69
2023/10/13 07:58:33;;;;;;;16.20;6.63;;;;;;;19.35;68.25;100316.03;5032837;28;20738;-68
2023/10/13 08:01:07;;;;;;;17.23;6.70;;;;;;;19.33;68.85;100327.00;5033556;28;20208;-69
2023/10/13 08:03:44;;;;;;;25.60;7.47;;;;;;;19.45;68.43;100322.63;5034382;28;20554;-68
2023/10/13 08:06:26;;;;;;;11.83;6.13;;;;;;;19.50;68.76;100330.09;5033236;28;20257;-69
2023/10/13 08:09:07;;;;;;;19.80;7.60;;;;;;;19.50;67.55;100322.03;5034349;28;20219;-69
2023/10/13 08:11:37;;;;;;;19.33;6.83;;;;;;;19.53;67.35;100322.44;5036437;28;20213;-69
2023/10/13 08:14:16;;;;;;;16.63;7.10;;;;;;;19.65;67.56;100314.53;5035355;28;20568;-69
2023/10/13 08:17:07;;;;;;;14.43;6.90;;;;;;;19.70;67.57;100303.97;5032001;28;20546;-70
2023/10/13 08:19:44;;;;;;;16.53;6.63;;;;;;;19.84;66.92;100305.59;5035372;28;21074;-70
2023/10/13 08:22:25;;;;;;;15.07;6.27;;;;;;;20.13;64.82;100292.66;5032780;28;20200;-69
2023/10/13 08:25:14;;;;;;;19.10;7.03;;;;;;;20.23;65.01;100304.59;5033930;28;20236;-69
2023/10/13 08:28:45;;;;;;;14.43;6.23;;;;;;;20.44;63.99;100298.09;5033347;28;20208;-69
2023/10/13 08:30:53;;;;;;;16.10;6.67;;;;;;;20.67;63.48;100302.09;5033977;28;20232;-69
2023/10/13 08:33:26;;;;;;;13.67;5.63;;;;;;;20.82;62.92;100308.81;5035295;28;20828;-68
2023/10/13 08:36:27;;;;;;;11.50;5.80;;;;;;;20.95;62.01;100297.09;5034994;28;20778;-69
2023/10/13 08:38:56;;;;;;;12.07;5.53;;;;;;;21.19;60.76;100299.03;5032398;28;20204;-69
2023/10/13 08:41:29;;;;;;;15.57;6.30;;;;;;;21.31;60.52;100296.41;5037639;28;20204;-69
2023/10/13 08:44:04;;;;;;;10.37;6.47;;;;;;;21.55;59.66;100292.03;5032771;28;20312;-69
2023/10/13 08:46:51;;;;;;;13.43;6.33;;;;;;;21.76;58.72;100299.66;5036163;28;20254;-69
2023/10/13 08:49:23;;;;;;;22.50;6.63;;;;;;;21.95;58.21;100293.22;5036571;28;20200;-70
2023/10/13 08:52:06;;;;;;;16.17;6.57;;;;;;;22.18;57.14;100289.00;5035778;28;20208;-69
2023/10/13 08:54:39;;;;;;;17.50;6.10;;;;;;;22.43;56.44;100278.88;5033059;28;20200;-69
2023/10/13 08:57:32;;;;;;;17.07;6.00;;;;;;;23.02;54.85;100277.16;5034603;28;20199;-69
2023/10/13 09:03:28;;;;;;;13.88;6.10;;;;;;;24.09;51.86;100274.94;5032371;28;20197;-68
2023/10/13 09:06:06;;;;;;;17.85;5.97;;;;;;;24.47;49.97;100263.44;5033932;28;20318;-69
2023/10/13 09:09:04;;;;;;;13.48;5.30;;;;;;;24.33;50.53;100258.34;5035430;28;20275;-68
2023/10/13 09:11:48;;;;;;;13.13;5.72;;;;;;;24.23;50.81;100250.03;5033339;28;20200;-71
2023/10/13 09:14:33;;;;;;;12.95;5.38;;;;;;;24.09;51.59;100240.53;5034673;28;20707;-71
2023/10/13 09:17:08;;;;;;;10.75;5.18;;;;;;;23.96;51.96;100247.06;5036348;28;20242;-69
2023/10/13 09:19:46;;;;;;;11.80;5.38;;;;;;;23.99;52.26;100224.09;5033857;28;20215;-69
2023/10/13 09:22:27;;;;;;;15.60;5.63;;;;;;;24.10;51.67;100223.19;5033762;28;20659;-68
2023/10/13 09:24:59;;;;;;;12.48;5.22;;;;;;;24.10;51.82;100209.66;5034562;28;20204;-68
2023/10/13 09:27:27;;;;;;;17.77;5.43;;;;;;;24.06;51.66;100211.22;5031825;28;20208;-68
2023/10/13 09:30:09;;;;;;;12.05;5.47;;;;;;;24.20;51.70;100207.13;5033739;28;20208;-69
2023/10/13 09:32:45;;;;;;;9.80;5.40;;;;;;;24.18;51.95;100198.44;5033969;28;20232;-69
2023/10/13 09:35:19;;;;;;;13.30;5.10;;;;;;;24.23;51.67;100198.56;5031160;28;20206;-69
2023/10/13 09:37:46;;;;;;;11.13;5.00;;;;;;;24.23;51.67;100198.56;5036519;28;20203;-70
2023/10/13 09:40:34;;;;;;;13.85;5.45;;;;;;;24.33;50.82;100198.75;5033802;28;20215;-69
2023/10/13 09:43:06;;;;;;;12.45;5.07;;;;;;;24.37;50.86;100194.47;5034314;28;20242;-69
2023/10/13 09:45:38;;;;;;;10.60;5.00;;;;;;;24.49;50.69;100190.84;5033282;28;20653;-68
2023/10/13 09:48:16;;;;;;;14.73;6.35;;;;;;;24.53;50.51;100181.19;5033156;28;20590;-68
2023/10/13 09:50:48;;;;;;;15.07;6.05;;;;;;;24.54;50.90;100190.97;5034786;28;20235;-69
2023/10/13 09:53:18;;;;;;;13.23;6.57;;;;;;;24.68;50.24;100186.84;5031459;28;20211;-68
2023/10/13 09:55:51;;;;;;;13.50;5.90;;;;;;;24.86;49.16;100175.72;5033248;28;20282;-68
2023/10/13 09:58:19;;;;;;;11.30;5.25;;;;;;;24.72;50.08;100175.25;5032878;28;20239;-71
2023/10/13 10:00:57;;;;;;;13.05;6.28;;;;;;;24.85;49.73;100175.97;5037201;28;20219;-69
2023/10/13 10:03:39;;;;;;;9.70;5.22;;;;;;;25.17;48.96;100170.75;5034888;28;20215;-69
2023/10/13 10:06:13;;;;;;;19.98;10.80;;;;;;;25.41;48.30;100174.91;5034826;28;20754;-68
2023/10/13 10:08:50;;;;;;;15.93;5.95;;;;;;;25.52;47.75;100179.34;5032529;28;20192;-70
2023/10/13 10:12:00;;;;;;;19.23;7.13;;;;;;;25.43;47.78;100180.88;5033936;28;20203;-68
2023/10/13 10:14:42;;;;;;;18.33;9.55;;;;;;;25.17;48.17;100182.44;5035276;28;20196;-69
2023/10/13 10:17:11;;;;;;;13.63;8.13;;;;;;;25.02;48.58;100184.94;5035278;28;20620;-69
2023/10/13 10:19:49;;;;;;;11.40;6.40;;;;;;;24.95;49.05;100184.31;5035697;28;20600;-68
2023/10/13 10:22:30;;;;;;;13.45;5.95;;;;;;;25.04;48.49;100189.06;5036675;28;20288;-69
2023/10/13 10:24:59;;;;;;;13.05;5.70;;;;;;;24.93;48.94;100179.13;5037518;28;20292;-69
2023/10/13 10:27:31;;;;;;;12.70;5.97;;;;;;;24.86;49.30;100173.03;5036263;28;20232;-68
2023/10/13 10:29:59;;;;;;;16.08;5.82;;;;;;;24.78;49.79;100165.31;5035297;28;20262;-69
2023/10/13 10:32:37;;;;;;;10.70;5.57;;;;;;;25.04;49.23;100161.94;5036595;28;20211;-69
2023/10/13 10:35:14;;;;;;;12.75;5.88;;;;;;;25.13;48.91;100153.34;5034544;28;20638;-69
2023/10/13 10:37:47;;;;;;;10.57;5.40;;;;;;;25.15;48.87;100152.03;5036084;28;20466;-69
2023/10/13 10:40:33;;;;;;;12.32;5.50;;;;;;;25.21;48.74;100140.16;5036610;28;20209;-68
2023/10/13 10:43:02;;;;;;;16.98;5.70;;;;;;;25.30;48.48;100135.94;5033115;28;20229;-68
2023/10/13 10:45:48;;;;;;;12.40;4.97;;;;;;;25.21;48.83;100133.91;5038001;28;20205;-71
2023/10/13 10:48:20;;;;;;;14.98;6.07;;;;;;;25.29;49.02;100147.03;5037542;28;20231;-70
2023/10/13 10:50:56;;;;;;;10.00;5.38;;;;;;;25.24;48.95;100134.25;5037109;28;20201;-69
2023/10/13 10:53:33;;;;;;;9.77;5.97;;;;;;;25.37;48.28;100131.13;5033964;28;20200;-69
2023/10/13 10:56:19;;;;;;;15.20;6.68;;;;;;;25.20;49.07;100126.84;5036846;28;20293;-68
2023/10/13 10:58:54;;;;;;;13.13;6.60;;;;;;;25.25;48.49;100122.28;5038689;28;20223;-69
2023/10/13 11:01:23;;;;;;;11.02;6.15;;;;;;;25.40;48.40;100121.69;5036543;28;20199;-68
2023/10/13 11:03:57;;;;;;;9.88;5.40;;;;;;;25.44;48.04;100125.50;5037130;28;20212;-69
2023/10/13 11:06:26;;;;;;;9.10;4.90;;;;;;;25.66;46.99;100125.53;5037819;28;20231;-69
2023/10/13 11:09:08;;;;;;;12.23;5.10;;;;;;;25.68;45.80;100112.53;5037301;28;21000;-68
2023/10/13 11:11:36;;;;;;;9.77;4.97;;;;;;;25.49;46.92;100110.13;5035104;28;20201;-69
2023/10/13 11:14:17;;;;;;;12.10;5.20;;;;;;;25.24;46.72;100112.53;5036824;28;20208;-69
2023/10/13 11:16:53;;;;;;;8.88;4.55;;;;;;;25.10;47.05;100106.66;5035730;28;20205;-69
2023/10/13 11:19:27;;;;;;;11.43;4.57;;;;;;;24.98;47.34;100108.66;5034409;28;20211;-69
2023/10/13 11:21:56;;;;;;;10.68;5.05;;;;;;;25.01;47.11;100105.44;5036672;28;20825;-69
2023/10/13 11:24:23;;;;;;;12.30;5.43;;;;;;;25.22;46.32;100097.56;5036350;28;20211;-69
2023/10/13 11:26:52;;;;;;;26.33;9.43;;;;;;;25.30;46.53;100100.66;5034659;28;20225;-70
2023/10/13 11:29:33;;;;;;;18.15;7.40;;;;;;;25.63;45.86;100088.00;5035228;28;20204;-69
2023/10/13 11:32:02;;;;;;;9.95;5.07;;;;;;;25.68;45.13;100088.88;5036744;28;20201;-70
2023/10/13 11:34:39;;;;;;;9.82;4.40;;;;;;;25.77;44.78;100084.63;5036132;28;20201;-68
2023/10/13 11:39:51;;;;;;;8.48;4.60;;;;;;;26.35;43.65;100071.28;5034853;28;20204;-70
2023/10/13 11:42:19;;;;;;;12.25;4.40;;;;;;;26.13;43.05;100064.03;5035970;28;20235;-69
2023/10/13 11:45:01;;;;;;;7.65;4.35;;;;;;;25.99;43.27;100064.72;5036907;28;20394;-69
2023/10/13 11:47:47;;;;;;;7.90;4.40;;;;;;;25.82;43.80;100049.38;5037130;28;20214;-70
2023/10/13 11:50:31;;;;;;;10.23;4.72;;;;;;;25.81;43.46;100055.06;5034856;28;20283;-71
2023/10/13 11:52:59;;;;;;;8.88;4.63;;;;;;;25.70;43.53;100056.88;5034737;28;20245;-72
2023/10/13 11:55:28;;;;;;;11.32;4.30;;;;;;;25.65;43.97;100053.28;5034258;28;20222;-68
2023/10/13 11:57:59;;;;;;;11.80;5.25;;;;;;;25.84;43.98;100044.53;5036616;28;20215;-69
2023/10/13 12:00:50;;;;;;;12.75;5.10;;;;;;;26.45;42.19;100038.75;5034396;28;20212;-69
2023/10/13 12:06:18;;;;;;;11.45;4.65;;;;;;;26.55;41.59;100023.31;5037218;28;20224;-70
2023/10/13 12:08:51;;;;;;;9.73;4.68;;;;;;;26.69;41.74;100025.53;5034231;28;20200;-69
2023/10/13 12:11:32;;;;;;;12.65;4.50;;;;;;;26.81;41.59;100028.88;5034516;28;20859;-70
2023/10/13 12:14:11;;;;;;;8.68;4.43;;;;;;;27.08;39.57;100023.31;5034406;28;20200;-70
2023/10/13 12:16:40;;;;;;;12.82;5.28;;;;;;;27.24;38.99;100016.81;5034738;28;20231;-69
2023/10/13 12:19:11;;;;;;;10.05;4.85;;;;;;;27.12;39.71;100000.72;5032652;28;20291;-69
2023/10/13 12:21:39;;;;;;;15.52;7.78;;;;;;;27.42;39.32;100001.88;5038941;28;20203;-69
2023/10/13 12:24:12;;;;;;;14.27;6.10;;;;;;;27.42;39.65;99999.16;5033517;28;20854;-68
2023/10/13 12:26:42;;;;;;;12.15;5.30;;;;;;;27.91;38.79;99994.84;5032169;28;20196;-71
2023/10/13 12:29:22;;;;;;;8.82;4.45;;;;;;;28.65;37.45;99999.63;5034893;28;20616;-69
2023/10/13 12:32:01;;;;;;;15.23;5.60;;;;;;;29.70;36.24;99988.41;5035160;28;20612;-69
2023/10/13 12:34:56;;;;;;;13.05;4.45;;;;;;;30.24;33.88;99982.75;5033191;28;20200;-69
2023/10/13 12:37:38;;;;;;;11.50;4.60;;;;;;;31.45;32.80;99979.56;5031761;28;20207;-69
2023/10/13 12:51:20;;;;;;;7.45;4.15;;;;;;;28.84;35.60;99958.09;5033868;28;20681;-68
2023/10/13 12:53:49;;;;;;;9.70;4.05;;;;;;;28.40;36.91;99967.81;5034313;28;20192;-68
2023/10/13 12:56:17;;;;;;;10.75;4.75;;;;;;;28.08;36.95;99961.84;5034620;28;20247;-70
2023/10/13 12:58:51;;;;;;;10.85;3.97;;;;;;;27.91;37.29;99964.03;5030794;28;20239;-69
2023/10/13 13:01:21;;;;;;;9.95;4.60;;;;;;;27.88;36.75;99954.50;5034150;28;20580;-69
2023/10/13 13:03:51;;;;;;;14.23;4.47;;;;;;;27.76;36.61;99945.00;5034556;28;20304;-68
2023/10/13 13:06:24;;;;;;;10.77;4.18;;;;;;;27.58;36.58;99954.53;5034330;28;20329;-69
2023/10/13 13:08:52;;;;;;;10.32;3.60;;;;;;;27.63;35.50;99941.72;5031594;28;20217;-69
2023/10/13 13:11:21;;;;;;;11.90;3.80;;;;;;;27.56;34.10;99943.91;5035170;28;20204;-70
2023/10/13 13:13:52;;;;;;;12.80;3.40;;;;;;;27.39;32.50;99934.34;5035165;28;20205;-71
2023/10/13 13:16:23;;;;;;;10.52;3.63;;;;;;;27.59;31.69;99934.38;5033782;28;20338;-68
2023/10/13 13:18:54;;;;;;;11.40;3.55;;;;;;;27.42;32.66;99931.09;5039047;28;20204;-69
2023/10/13 13:21:24;;;;;;;13.50;3.88;;;;;;;27.25;32.81;99932.16;5033917;28;20517;-69
2023/10/13 13:23:54;;;;;;;7.20;3.55;;;;;;;27.13;33.51;99928.88;5032860;28;20665;-69
2023/10/13 13:26:22;;;;;;;8.93;4.13;;;;;;;27.05;33.39;99940.28;5035068;28;20282;-68
2023/10/13 13:28:51;;;;;;;10.32;3.50;;;;;;;27.04;32.90;99933.22;5036415;28;20225;-68
2023/10/13 13:31:19;;;;;;;9.35;3.70;;;;;;;27.06;33.24;99932.94;5033934;28;20215;-69
2023/10/13 13:33:46;;;;;;;10.05;3.92;;;;;;;26.91;33.57;99931.81;5034485;28;20254;-68
2023/10/13 13:36:16;;;;;;;9.93;3.97;;;;;;;26.91;33.65;99920.94;5030762;28;20236;-69
2023/10/13 13:38:46;;;;;;;11.30;3.67;;;;;;;26.92;33.65;99916.31;5032301;28;20226;-69